Etusivu
METAR-TAF:

METAR-TAF

Lentoasemat :

Svolvær, Norja

Svolværin lentoasema

Leveyspiiri: 68-15N, Pituuspiiri: 014-40E, korkeus merenpinnasta: 0 m

Tämänhetkinen sää

Tämä raportti tehtiin 4 tuntia ja 5 minuuttia sitten, kello 20.20 UTC
Tuuli 10 kn koillisesta
Lämpötila 0°C
Kosteus 64%
Ilmanpaine 1010 hPa
Näkyvyys 10 km tai enemmän
Hajonneita pilviä 4000 ft:n korkeudessa

METAR: ENSH 192020Z 05010KT 9999 BKN040 M00/M06 Q1010 RMK WIND 150FT 05014KT

Aika: 01:25 (00:25 UTC)

Sääennuste

Tämä raportti tehtiin 7 tuntia ja 25 minuuttia sitten, kello 17.00 UTC
Ennuste voimassa 19. päivästä klo 18 UTC - 19. päivään klo 21 UTC
Tuuli 8 kn koillisesta
Näkyvyys 10 km tai enemmän
Hajonneita pilviä 3500 ft:n korkeudessa

TAF: ENSH 191700Z 1918/1921 04008KT 9999 BKN035

Säähavainnot ja -ennusteet yli 4000 lentoasemalta (METAR- ja TAF-raportit).

Käytössä olevat sääasemat on merkitty karttaan keltaisilla ja punaisilla pisteillä.

Aseta hiiri pisteen päälle nähdäksesi sääaseman nimen.

Klikkaa sitten nähdäksesi säähavainnot ja -ennusteet.

Kartan vaihtaminen: klikkaa mustalla rastilla varustettuja vihreitä pisteitä, niin voit zoomata sisään; viivalla varustettua vihreää pistettä, niin voit zoomata ulos tai vihreitä nuolia, niin pääset viereisille kartoille.


METAR-TAF: